createdAt,value
2022-12-20T00:00:31.380Z,19.23
2022-12-20T00:03:34.053Z,18.80
2022-12-20T00:06:36.987Z,17.60
2022-12-20T00:09:39.904Z,17.83
2022-12-20T00:12:42.524Z,16.23
2022-12-20T00:15:46.498Z,17.45
2022-12-20T00:18:52.129Z,15.23
2022-12-20T00:21:54.803Z,15.60
2022-12-20T00:24:57.413Z,14.50
2022-12-20T00:28:01.178Z,13.52
2022-12-20T00:31:06.430Z,13.02
2022-12-20T00:34:09.853Z,13.10
2022-12-20T00:37:13.358Z,14.13
2022-12-20T00:40:16.515Z,13.73
2022-12-20T00:43:19.091Z,13.57
2022-12-20T00:46:25.186Z,14.30
2022-12-20T00:49:28.262Z,10.57
2022-12-20T00:52:30.858Z,13.65
2022-12-20T00:55:33.466Z,13.23
2022-12-20T00:58:38.385Z,13.20
2022-12-20T01:01:42.598Z,14.60
2022-12-20T01:04:45.430Z,16.77
2022-12-20T01:07:48.046Z,15.80
2022-12-20T01:10:59.243Z,15.15
2022-12-20T01:14:05.587Z,16.50
2022-12-20T01:17:10.686Z,19.13
2022-12-20T01:20:14.038Z,17.90
2022-12-20T01:23:16.759Z,14.10
2022-12-20T01:26:22.349Z,12.18
2022-12-20T01:29:25.656Z,14.00
2022-12-20T01:32:29.704Z,14.48
2022-12-20T01:35:32.356Z,11.73
2022-12-20T01:38:35.790Z,12.23
2022-12-20T01:41:38.766Z,10.57
2022-12-20T01:44:59.114Z,11.30
2022-12-20T01:48:03.464Z,11.90
2022-12-20T01:51:07.238Z,12.27
2022-12-20T01:54:15.381Z,11.57
2022-12-20T01:57:22.671Z,10.93
2022-12-20T02:00:25.960Z,10.70
2022-12-20T02:03:31.053Z,11.63
2022-12-20T02:06:33.942Z,12.73
2022-12-20T02:09:38.383Z,12.32
2022-12-20T02:12:42.476Z,10.88
2022-12-20T02:15:54.103Z,10.95
2022-12-20T02:19:04.254Z,10.43
2022-12-20T02:22:18.990Z,10.37
2022-12-20T02:25:42.703Z,11.98
2022-12-20T02:29:10.789Z,9.90
2022-12-20T02:32:20.147Z,10.23
2022-12-20T02:35:26.589Z,11.25
2022-12-20T02:38:32.322Z,11.00
2022-12-20T02:41:41.178Z,7.10
2022-12-20T02:45:06.822Z,9.95
2022-12-20T02:48:11.673Z,9.38
2022-12-20T02:51:17.721Z,6.95
2022-12-20T02:54:21.642Z,10.07
2022-12-20T02:57:29.848Z,10.07
2022-12-20T03:00:42.676Z,10.82
2022-12-20T03:03:47.367Z,9.85
2022-12-20T03:06:58.855Z,9.35
2022-12-20T03:10:01.551Z,9.90
2022-12-20T03:13:04.868Z,11.43
2022-12-20T03:16:10.805Z,11.30
2022-12-20T03:19:15.453Z,10.80
2022-12-20T03:22:18.124Z,11.20
2022-12-20T03:25:20.898Z,11.50
2022-12-20T03:28:24.106Z,10.02
2022-12-20T03:31:27.292Z,9.50
2022-12-20T03:34:32.290Z,11.45
2022-12-20T03:37:36.352Z,10.38
2022-12-20T03:40:40.797Z,10.90
2022-12-20T03:43:45.118Z,11.02
2022-12-20T03:46:47.866Z,11.32
2022-12-20T03:49:52.323Z,11.07
2022-12-20T03:52:55.223Z,10.90
2022-12-20T03:55:58.010Z,10.37
2022-12-20T03:59:01.121Z,10.35
2022-12-20T04:02:04.171Z,10.82
2022-12-20T04:05:09.175Z,11.18
2022-12-20T04:08:13.405Z,10.65
2022-12-20T04:11:16.418Z,10.27
2022-12-20T04:14:32.984Z,9.27
2022-12-20T04:17:35.937Z,11.23
2022-12-20T04:20:42.568Z,9.50
2022-12-20T04:23:54.993Z,9.90
2022-12-20T04:26:58.056Z,10.77
2022-12-20T04:30:00.720Z,9.65
2022-12-20T04:33:04.320Z,9.48
2022-12-20T04:36:08.486Z,8.55
2022-12-20T04:39:11.145Z,9.93
2022-12-20T04:42:24.414Z,10.33
2022-12-20T04:45:28.600Z,9.25
2022-12-20T04:48:56.348Z,9.45
2022-12-20T04:52:16.070Z,9.70
2022-12-20T04:55:18.825Z,8.75
2022-12-20T04:58:21.573Z,10.40
2022-12-20T05:01:24.845Z,10.35
2022-12-20T05:04:35.097Z,9.70
2022-12-20T05:07:41.232Z,9.95
2022-12-20T05:10:44.635Z,9.77
2022-12-20T05:13:48.812Z,8.40
2022-12-20T05:16:54.111Z,9.68
2022-12-20T05:19:56.764Z,10.50
2022-12-20T05:23:19.504Z,10.00
2022-12-20T05:26:26.752Z,10.02
2022-12-20T05:29:30.717Z,10.37
2022-12-20T05:32:33.553Z,10.05
2022-12-20T05:35:36.331Z,9.93
2022-12-20T05:38:45.013Z,10.48
2022-12-20T05:41:53.719Z,11.30
2022-12-20T05:44:59.234Z,11.97
2022-12-20T05:48:02.607Z,11.30
2022-12-20T05:51:06.467Z,11.52
2022-12-20T05:54:18.230Z,11.25
2022-12-20T05:57:28.767Z,10.10
2022-12-20T06:00:33.632Z,8.67
2022-12-20T06:03:37.612Z,10.30
2022-12-20T06:06:43.478Z,9.32
2022-12-20T06:09:48.350Z,8.57
2022-12-20T06:12:53.619Z,10.85
2022-12-20T06:15:56.998Z,11.13
2022-12-20T06:19:00.679Z,10.23
2022-12-20T06:22:03.652Z,10.73
2022-12-20T06:25:19.510Z,12.32
2022-12-20T06:28:22.636Z,11.23
2022-12-20T06:31:26.077Z,10.60
2022-12-20T06:34:30.403Z,11.70
2022-12-20T06:37:33.360Z,11.57
2022-12-20T06:40:37.413Z,12.20
2022-12-20T06:43:40.325Z,12.98
2022-12-20T06:46:45.929Z,11.60
2022-12-20T06:49:48.632Z,11.00
2022-12-20T06:52:58.021Z,12.05
2022-12-20T06:56:20.582Z,11.57
2022-12-20T06:59:24.111Z,11.18
2022-12-20T07:02:28.891Z,10.50
2022-12-20T07:05:42.302Z,12.10
2022-12-20T07:08:44.946Z,10.45
2022-12-20T07:11:49.243Z,12.52
2022-12-20T07:14:51.938Z,11.75
2022-12-20T07:17:55.384Z,13.40
2022-12-20T07:21:00.637Z,12.00
2022-12-20T07:24:03.324Z,11.60
2022-12-20T07:27:10.335Z,11.85
2022-12-20T07:30:13.749Z,11.38
2022-12-20T07:33:18.105Z,11.07
2022-12-20T07:36:21.085Z,9.75
2022-12-20T07:39:23.787Z,10.85
2022-12-20T07:42:35.739Z,9.38
2022-12-20T07:45:41.681Z,12.45
2022-12-20T07:48:47.411Z,12.70
2022-12-20T07:51:54.190Z,11.27
2022-12-20T07:55:01.537Z,10.23
2022-12-20T07:58:09.679Z,9.70
2022-12-20T08:01:14.611Z,9.88
2022-12-20T08:04:21.608Z,9.40
2022-12-20T08:07:24.726Z,9.50
2022-12-20T08:10:28.976Z,11.18
2022-12-20T08:13:34.160Z,8.98
2022-12-20T08:16:37.264Z,10.27
2022-12-20T08:19:39.963Z,10.77
2022-12-20T08:22:43.336Z,10.27
2022-12-20T08:25:46.077Z,9.00
2022-12-20T08:28:50.242Z,10.02
2022-12-20T08:31:53.053Z,10.25
2022-12-20T08:34:56.897Z,10.87
2022-12-20T08:38:00.524Z,9.23
2022-12-20T08:41:05.329Z,9.68
2022-12-20T08:44:10.803Z,10.55
2022-12-20T08:47:13.667Z,9.10
2022-12-20T08:50:16.490Z,10.20
2022-12-20T08:53:19.643Z,9.25
2022-12-20T08:56:24.810Z,10.77
2022-12-20T08:59:31.603Z,10.40
2022-12-20T09:02:35.212Z,10.55
2022-12-20T09:05:44.276Z,10.67
2022-12-20T09:08:48.794Z,11.75
2022-12-20T09:11:54.212Z,9.88
2022-12-20T09:14:59.681Z,11.57
2022-12-20T09:18:03.523Z,10.80
2022-12-20T09:21:09.961Z,9.67
2022-12-20T09:24:12.945Z,9.27
2022-12-20T09:27:15.740Z,9.75
2022-12-20T09:30:20.108Z,7.88
2022-12-20T09:33:25.188Z,10.02
2022-12-20T09:36:30.104Z,8.57
2022-12-20T09:39:32.819Z,7.25
2022-12-20T09:42:36.669Z,8.45
2022-12-20T09:45:41.763Z,10.05
2022-12-20T09:48:46.806Z,10.80
2022-12-20T09:52:03.837Z,9.27
2022-12-20T09:55:20.541Z,9.57
2022-12-20T09:58:51.068Z,9.88
2022-12-20T10:01:55.900Z,10.55
2022-12-20T10:04:59.485Z,10.70
2022-12-20T10:08:12.633Z,8.77
2022-12-20T10:11:40.661Z,10.70
2022-12-20T10:15:16.063Z,11.10
2022-12-20T10:18:38.300Z,9.65
2022-12-20T10:21:50.306Z,11.50
2022-12-20T10:25:12.200Z,11.27
2022-12-20T10:28:18.126Z,9.20
2022-12-20T10:31:23.902Z,10.57
2022-12-20T10:34:37.318Z,9.93
2022-12-20T10:38:07.071Z,10.90
2022-12-20T10:41:21.787Z,9.70
2022-12-20T10:44:27.502Z,10.30
2022-12-20T10:47:37.997Z,11.80
2022-12-20T10:50:42.890Z,10.02
2022-12-20T10:53:59.871Z,11.52
2022-12-20T10:57:15.022Z,11.33
2022-12-20T11:00:29.731Z,9.95
2022-12-20T11:03:32.825Z,9.95
2022-12-20T11:06:45.647Z,10.88
2022-12-20T11:09:54.781Z,9.48
2022-12-20T11:13:01.026Z,9.53
2022-12-20T11:16:04.286Z,9.80
2022-12-20T11:19:27.607Z,8.48
2022-12-20T11:22:41.626Z,10.90
2022-12-20T11:25:58.975Z,10.70
2022-12-20T11:29:21.244Z,10.73
2022-12-20T11:32:40.590Z,10.73
2022-12-20T11:35:53.564Z,10.75
2022-12-20T11:39:10.880Z,11.23
2022-12-20T11:42:23.187Z,10.88
2022-12-20T11:45:31.877Z,11.77
2022-12-20T11:48:49.272Z,11.48
2022-12-20T11:52:03.231Z,11.75
2022-12-20T11:55:20.740Z,12.00
2022-12-20T11:58:27.299Z,12.63
2022-12-20T12:01:36.029Z,11.90
2022-12-20T12:04:44.827Z,15.18
2022-12-20T12:07:53.899Z,12.77
2022-12-20T12:11:02.855Z,10.48
2022-12-20T12:14:18.175Z,10.80
2022-12-20T12:17:27.626Z,11.00
2022-12-20T12:20:47.194Z,11.02
2022-12-20T12:23:57.931Z,11.05
2022-12-20T12:27:02.799Z,11.10
2022-12-20T12:30:07.286Z,9.38
2022-12-20T12:33:22.095Z,9.17
2022-12-20T12:36:46.423Z,11.48
2022-12-20T12:40:16.183Z,10.43
2022-12-20T12:43:49.968Z,12.10
2022-12-20T12:46:59.782Z,7.35
2022-12-20T12:50:03.984Z,10.73
2022-12-20T12:53:13.951Z,11.95
2022-12-20T12:56:47.675Z,11.07
2022-12-20T12:59:52.005Z,10.55
2022-12-20T13:02:54.968Z,10.02
2022-12-20T13:05:58.404Z,11.10
2022-12-20T13:09:22.488Z,9.93
2022-12-20T13:12:56.669Z,9.20
2022-12-20T13:17:02.126Z,10.10
2022-12-20T13:19:52.296Z,8.82
2022-12-20T13:23:17.582Z,10.37
2022-12-20T13:26:43.601Z,10.40
2022-12-20T13:29:58.893Z,11.60
2022-12-20T13:33:40.062Z,10.85
2022-12-20T13:36:43.581Z,10.25
2022-12-20T13:39:48.075Z,9.70
2022-12-20T13:42:55.104Z,8.68
2022-12-20T13:46:13.534Z,8.32
2022-12-20T13:49:24.369Z,9.95
2022-12-20T13:52:30.383Z,10.73
2022-12-20T13:55:36.396Z,8.97
2022-12-20T13:58:44.174Z,8.27
2022-12-20T14:01:49.463Z,11.57
2022-12-20T14:04:59.353Z,9.93
2022-12-20T14:08:04.667Z,8.20
2022-12-20T14:11:10.149Z,10.00
2022-12-20T14:14:14.196Z,10.95
2022-12-20T14:17:18.745Z,10.45
2022-12-20T14:20:30.442Z,11.32
2022-12-20T14:23:37.917Z,11.30
2022-12-20T14:26:48.149Z,13.50
2022-12-20T14:29:52.163Z,18.13
2022-12-20T14:32:55.963Z,17.25
2022-12-20T14:36:08.496Z,17.48
2022-12-20T14:39:26.257Z,13.68
2022-12-20T14:42:34.124Z,12.93
2022-12-20T14:45:37.001Z,14.15
2022-12-20T14:48:39.858Z,14.23
2022-12-20T14:51:44.049Z,13.10
2022-12-20T14:55:08.733Z,15.85
2022-12-20T14:58:24.751Z,16.30
2022-12-20T15:01:28.484Z,17.85
2022-12-20T15:04:33.317Z,18.85
2022-12-20T15:07:41.741Z,18.05
2022-12-20T15:10:54.304Z,18.67
2022-12-20T15:13:59.293Z,19.00
2022-12-20T15:17:03.882Z,19.85
2022-12-20T15:20:15.087Z,15.95
2022-12-20T15:23:21.184Z,16.92
2022-12-20T15:26:25.602Z,16.13
2022-12-20T15:29:29.174Z,17.67
2022-12-20T15:32:32.659Z,19.55
2022-12-20T15:35:35.517Z,19.27
2022-12-20T15:39:10.661Z,15.73
2022-12-20T15:42:04.688Z,18.08
2022-12-20T15:45:13.046Z,20.33
2022-12-20T15:48:18.818Z,21.13
2022-12-20T15:51:30.197Z,19.75
2022-12-20T15:54:36.965Z,16.38
2022-12-20T15:57:39.661Z,16.75
2022-12-20T16:00:42.851Z,18.57
2022-12-20T16:03:45.635Z,17.30
2022-12-20T16:06:50.114Z,17.17
2022-12-20T16:09:54.314Z,14.43
2022-12-20T16:12:57.055Z,16.63
2022-12-20T16:16:00.359Z,15.77
2022-12-20T16:19:03.996Z,17.35
2022-12-20T16:22:14.315Z,17.77
2022-12-20T16:25:29.323Z,17.08
2022-12-20T16:28:32.084Z,16.13
2022-12-20T16:31:36.489Z,16.13
2022-12-20T16:34:39.416Z,15.90
2022-12-20T16:37:42.134Z,16.63
2022-12-20T16:40:46.257Z,15.55
2022-12-20T16:43:49.422Z,14.77
2022-12-20T16:46:52.175Z,18.80
2022-12-20T16:49:54.989Z,16.35
2022-12-20T16:52:57.747Z,17.25
2022-12-20T16:56:01.935Z,17.40
2022-12-20T16:59:22.550Z,20.15
2022-12-20T17:02:28.641Z,20.17
2022-12-20T17:05:33.875Z,19.90
2022-12-20T17:12:10.302Z,17.30
2022-12-20T17:15:17.852Z,17.60
2022-12-20T17:18:20.774Z,16.97
2022-12-20T17:21:33.347Z,17.65
2022-12-20T17:24:36.020Z,16.85
2022-12-20T17:27:39.995Z,17.80
2022-12-20T17:30:45.617Z,20.88
2022-12-20T17:33:48.352Z,19.33
2022-12-20T17:36:52.933Z,18.77
2022-12-20T17:39:55.948Z,18.90
2022-12-20T17:43:00.183Z,19.77
2022-12-20T17:46:02.925Z,17.88
2022-12-20T17:49:05.571Z,22.10
2022-12-20T17:52:13.220Z,20.15
2022-12-20T17:55:21.416Z,23.08
2022-12-20T17:58:25.569Z,20.13
2022-12-20T18:01:30.335Z,21.80
2022-12-20T18:04:38.192Z,22.63
2022-12-20T18:07:40.947Z,19.15
2022-12-20T18:10:45.773Z,19.35
2022-12-20T18:13:51.756Z,29.38
2022-12-20T18:16:55.611Z,23.05
2022-12-20T18:19:59.733Z,19.93
2022-12-20T18:23:03.436Z,17.90
2022-12-20T18:26:08.227Z,18.65
2022-12-20T18:29:12.542Z,17.40
2022-12-20T18:32:15.388Z,16.83
2022-12-20T18:35:18.217Z,16.60
2022-12-20T18:38:23.400Z,17.60
2022-12-20T18:41:28.875Z,22.17
2022-12-20T18:44:35.743Z,27.35
2022-12-20T18:47:38.670Z,25.23
2022-12-20T18:50:43.933Z,25.10
2022-12-20T18:53:47.858Z,27.08
2022-12-20T18:56:51.227Z,24.70
2022-12-20T18:59:55.348Z,30.77
2022-12-20T19:03:00.050Z,32.42
2022-12-20T19:06:03.369Z,33.73
2022-12-20T19:09:08.277Z,36.60
2022-12-20T19:12:11.478Z,38.97
2022-12-20T19:15:15.806Z,32.15
2022-12-20T19:18:18.415Z,30.65
2022-12-20T19:21:24.101Z,27.87
2022-12-20T19:24:27.025Z,27.02
2022-12-20T19:27:30.202Z,26.48
2022-12-20T19:30:34.368Z,32.00
2022-12-20T19:33:37.326Z,32.30
2022-12-20T19:36:41.862Z,29.87
2022-12-20T19:39:44.766Z,28.30
2022-12-20T19:42:47.660Z,26.65
2022-12-20T19:45:51.640Z,25.38
2022-12-20T19:48:55.300Z,26.25
2022-12-20T19:51:57.987Z,23.63
2022-12-20T19:55:01.034Z,22.10
2022-12-20T19:58:03.799Z,21.98
2022-12-20T20:01:09.312Z,20.38
2022-12-20T20:04:12.289Z,19.60
2022-12-20T20:07:15.509Z,18.57
2022-12-20T20:10:18.625Z,17.00
2022-12-20T20:13:41.133Z,15.77
2022-12-20T20:16:45.190Z,14.38
2022-12-20T20:19:48.533Z,13.30
2022-12-20T20:22:51.327Z,12.47
2022-12-20T20:25:57.235Z,12.25
2022-12-20T20:29:01.879Z,11.98
2022-12-20T20:32:07.571Z,12.00
2022-12-20T20:35:10.988Z,10.57
2022-12-20T20:38:13.670Z,11.03
2022-12-20T20:41:17.657Z,11.82
2022-12-20T20:44:20.324Z,10.80
2022-12-20T20:47:24.559Z,10.88
2022-12-20T20:50:31.283Z,11.48
2022-12-20T20:53:34.714Z,11.90
2022-12-20T20:56:37.480Z,10.52
2022-12-20T20:59:40.399Z,10.10
2022-12-20T21:02:45.420Z,9.35
2022-12-20T21:06:32.479Z,8.52
2022-12-20T21:09:12.959Z,8.47
2022-12-20T21:12:16.976Z,8.80
2022-12-20T21:15:22.954Z,9.98
2022-12-20T21:18:27.798Z,10.38
2022-12-20T21:21:30.437Z,9.00
2022-12-20T21:24:33.158Z,8.83
2022-12-20T21:27:35.913Z,9.75
2022-12-20T21:30:38.538Z,9.52
2022-12-20T21:33:42.774Z,10.48
2022-12-20T21:36:45.558Z,9.15
2022-12-20T21:39:48.472Z,8.73
2022-12-20T21:42:51.262Z,8.45
2022-12-20T21:45:53.959Z,8.57
2022-12-20T21:48:58.751Z,7.68
2022-12-20T21:52:01.618Z,8.95
2022-12-20T21:55:04.955Z,8.77
2022-12-20T21:58:07.636Z,8.77
2022-12-20T22:01:10.879Z,10.00
2022-12-20T22:04:15.167Z,10.63
2022-12-20T22:07:17.943Z,9.73
2022-12-20T22:10:20.712Z,10.13
2022-12-20T22:13:23.416Z,9.48
2022-12-20T22:16:35.112Z,8.18
2022-12-20T22:19:39.384Z,8.50
2022-12-20T22:22:42.027Z,8.07
2022-12-20T22:25:44.750Z,7.43
2022-12-20T22:28:49.917Z,7.25
2022-12-20T22:31:52.718Z,6.85
2022-12-20T22:34:56.967Z,7.32
2022-12-20T22:38:00.800Z,7.72
2022-12-20T22:41:07.824Z,7.60
2022-12-20T22:44:10.506Z,7.28
2022-12-20T22:47:13.134Z,7.30
2022-12-20T22:50:17.233Z,6.75
2022-12-20T22:53:19.860Z,6.63
2022-12-20T22:56:22.677Z,5.67
2022-12-20T22:59:25.480Z,5.30
2022-12-20T23:02:28.331Z,6.38
2022-12-20T23:05:33.778Z,5.90
2022-12-20T23:08:37.940Z,7.57
2022-12-20T23:11:58.956Z,5.33
2022-12-20T23:15:19.852Z,7.22
2022-12-20T23:18:22.731Z,6.93
2022-12-20T23:21:48.274Z,6.60
2022-12-20T23:24:50.854Z,8.10
2022-12-20T23:27:53.583Z,8.20
2022-12-20T23:30:56.532Z,7.90
2022-12-20T23:33:59.653Z,8.80
2022-12-20T23:37:03.687Z,8.23
2022-12-20T23:40:08.412Z,8.85
2022-12-20T23:43:11.218Z,8.13
2022-12-20T23:46:18.935Z,8.13
2022-12-20T23:49:21.617Z,8.63
2022-12-20T23:52:26.478Z,9.32
2022-12-20T23:55:29.108Z,8.45
2022-12-20T23:58:32.422Z,7.80
